Time,TemperatureF,DewpointF,PressureIn,WindDirection,WindDirectionDegrees,WindSpeedMPH,WindSpeedGustMPH,Humidity,HourlyPrecipIn,Conditions,Clouds,dailyrainin,SoftwareType,DateUTC
2013-06-04 00:01:00,65.1,39.6,29.91,North,0,2.2,2.7,39,0.00,,---,0.00,VWS V14.00,2013-06-04 04:01:00,
2013-06-04 00:06:00,65.1,39.6,29.91,NE,45,2.2,2.2,39,0.00,,---,0.00,VWS V14.00,2013-06-04 04:06:00,
2013-06-04 00:11:00,65.1,39.6,29.94,ESE,112,2.2,2.2,39,0.00,,---,0.00,VWS V14.00,2013-06-04 04:11:00,
2013-06-04 00:16:00,65.1,39.6,29.94,SSW,202,0.9,2.0,39,0.00,,---,0.00,VWS V14.00,2013-06-04 04:16:00,
2013-06-04 00:21:00,65.1,39.6,29.94,North,0,0.0,2.2,39,0.00,,---,0.00,VWS V14.00,2013-06-04 04:21:00,
2013-06-04 00:26:00,64.9,38.8,29.94,NE,45,2.2,2.2,38,0.00,,---,0.00,VWS V14.00,2013-06-04 04:26:00,
2013-06-04 00:31:00,64.9,38.8,29.94,SW,225,2.2,2.2,38,0.00,,---,0.00,VWS V14.00,2013-06-04 04:31:00,
2013-06-04 00:36:00,64.8,38.6,29.94,NNE,22,0.9,2.9,38,0.00,,---,0.00,VWS V14.00,2013-06-04 04:36:00,
2013-06-04 00:41:00,64.6,37.8,29.94,WNW,292,2.0,2.7,37,0.00,,---,0.00,VWS V14.00,2013-06-04 04:41:00,
2013-06-04 00:46:00,64.4,37.6,29.94,North,0,1.6,2.2,37,0.00,,---,0.00,VWS V14.00,2013-06-04 04:46:00,
2013-06-04 00:51:00,64.2,37.4,29.94,NE,45,1.3,1.3,37,0.00,,---,0.00,VWS V14.00,2013-06-04 04:51:00,
2013-06-04 00:56:00,64.0,37.3,29.94,WSW,248,0.9,1.3,37,0.00,,---,0.00,VWS V14.00,2013-06-04 04:56:00,
2013-06-04 01:02:00,63.9,37.1,29.94,NE,45,3.4,5.6,37,0.00,,---,0.00,VWS V14.00,2013-06-04 05:02:00,
2013-06-04 01:07:00,63.5,36.8,29.94,ESE,112,0.9,0.9,37,0.00,,---,0.00,VWS V14.00,2013-06-04 05:07:00,
2013-06-04 01:12:00,63.5,36.8,29.94,North,0,2.0,3.4,37,0.00,,---,0.00,VWS V14.00,2013-06-04 05:12:00,
2013-06-04 01:17:00,63.1,36.5,29.94,NE,45,0.9,0.9,37,0.00,,---,0.00,VWS V14.00,2013-06-04 05:17:00,
2013-06-04 01:22:00,63.0,36.3,29.94,West,270,1.3,1.6,37,0.00,,---,0.00,VWS V14.00,2013-06-04 05:22:00,
2013-06-04 01:27:00,62.8,36.2,29.94,NNW,338,0.0,0.0,37,0.00,,---,0.00,VWS V14.00,2013-06-04 05:27:00,
2013-06-04 01:32:00,62.6,36.0,29.94,NE,45,1.1,1.1,37,0.00,,---,0.00,VWS V14.00,2013-06-04 05:32:00,
2013-06-04 01:37:00,62.2,35.7,29.94,NE,45,0.0,0.0,37,0.00,,---,0.00,VWS V14.00,2013-06-04 05:37:00,
2013-06-04 01:42:00,62.1,35.5,29.94,NE,45,0.0,0.0,37,0.00,,---,0.00,VWS V14.00,2013-06-04 05:42:00,
2013-06-04 01:47:00,61.9,35.3,29.94,NW,315,0.0,0.0,37,0.00,,---,0.00,VWS V14.00,2013-06-04 05:47:00,
2013-06-04 01:52:00,61.7,35.2,29.94,SSW,202,0.9,0.9,37,0.00,,---,0.00,VWS V14.00,2013-06-04 05:52:00,
2013-06-04 01:57:00,61.7,35.2,29.94,NNW,338,1.1,1.1,37,0.00,,---,0.00,VWS V14.00,2013-06-04 05:57:00,
2013-06-04 02:02:00,61.2,34.7,29.94,NW,315,0.0,0.0,37,0.00,,---,0.00,VWS V14.00,2013-06-04 06:02:00,
2013-06-04 02:07:00,61.0,34.5,29.94,NNE,22,1.1,1.1,37,0.00,,---,0.00,VWS V14.00,2013-06-04 06:07:00,
2013-06-04 02:12:00,61.0,34.5,29.97,NE,45,1.3,3.4,37,0.00,,---,0.00,VWS V14.00,2013-06-04 06:12:00,
2013-06-04 02:17:00,60.8,34.4,29.97,NNE,22,0.9,3.1,37,0.00,,---,0.00,VWS V14.00,2013-06-04 06:17:00,
2013-06-04 02:22:00,60.8,34.4,29.97,NNE,22,2.7,2.7,37,0.00,,---,0.00,VWS V14.00,2013-06-04 06:22:00,
2013-06-04 02:27:00,60.6,34.9,29.97,NNE,22,1.1,1.1,38,0.00,,---,0.00,VWS V14.00,2013-06-04 06:27:00,
2013-06-04 02:32:00,60.6,34.9,29.97,North,0,0.0,0.0,38,0.00,,---,0.00,VWS V14.00,2013-06-04 06:32:00,
2013-06-04 02:37:00,60.6,34.9,29.97,ENE,68,2.0,2.0,38,0.00,,---,0.00,VWS V14.00,2013-06-04 06:37:00,
2013-06-04 02:42:00,60.6,34.9,30.00,NNE,22,1.6,1.6,38,0.00,,---,0.00,VWS V14.00,2013-06-04 06:42:00,
2013-06-04 02:47:00,60.6,34.9,30.00,NNW,338,2.7,2.7,38,0.00,,---,0.00,VWS V14.00,2013-06-04 06:47:00,
2013-06-04 02:52:00,60.4,34.7,30.00,NNW,338,1.3,1.3,38,0.00,,---,0.00,VWS V14.00,2013-06-04 06:52:00,
2013-06-04 02:57:00,60.4,34.1,29.97,NE,45,1.1,1.6,37,0.00,,---,0.00,VWS V14.00,2013-06-04 06:57:00,
2013-06-04 03:02:00,60.3,33.9,29.97,ENE,68,2.5,2.9,37,0.00,,---,0.00,VWS V14.00,2013-06-04 07:02:00,
2013-06-04 03:07:00,60.1,33.8,29.97,SE,135,2.7,3.1,37,0.00,,---,0.00,VWS V14.00,2013-06-04 07:07:00,
2013-06-04 03:12:00,60.1,33.8,29.97,NNW,338,1.3,2.2,37,0.00,,---,0.00,VWS V14.00,2013-06-04 07:12:00,
2013-06-04 03:17:00,59.9,33.6,29.97,North,0,0.0,1.6,37,0.00,,---,0.00,VWS V14.00,2013-06-04 07:17:00,
2013-06-04 03:22:00,59.7,33.4,29.97,NNE,22,6.5,6.5,37,0.00,,---,0.00,VWS V14.00,2013-06-04 07:22:00,
2013-06-04 03:27:00,59.5,33.3,29.97,NE,45,3.6,6.3,37,0.00,,---,0.00,VWS V14.00,2013-06-04 07:27:00,
2013-06-04 03:32:00,59.5,33.3,29.97,NNE,22,4.3,4.3,37,0.00,,---,0.00,VWS V14.00,2013-06-04 07:32:00,
2013-06-04 03:37:00,59.4,33.1,29.97,East,90,0.0,0.9,37,0.00,,---,0.00,VWS V14.00,2013-06-04 07:37:00,
2013-06-04 03:42:00,59.2,33.0,29.97,ESE,112,0.0,0.9,37,0.00,,---,0.00,VWS V14.00,2013-06-04 07:42:00,
2013-06-04 03:47:00,59.2,33.0,29.97,East,90,1.3,1.3,37,0.00,,---,0.00,VWS V14.00,2013-06-04 07:47:00,
2013-06-04 03:52:00,58.8,32.6,29.97,NE,45,2.9,3.6,37,0.00,,---,0.00,VWS V14.00,2013-06-04 07:52:00,
2013-06-04 03:57:00,58.8,32.6,29.97,North,0,1.1,1.1,37,0.00,,---,0.00,VWS V14.00,2013-06-04 07:57:00,
2013-06-04 04:02:00,58.6,32.5,29.97,NNE,22,1.1,1.3,37,0.00,,---,0.00,VWS V14.00,2013-06-04 08:02:00,
2013-06-04 04:07:00,58.5,32.3,29.97,NNE,22,4.3,4.3,37,0.00,,---,0.00,VWS V14.00,2013-06-04 08:07:00,
2013-06-04 04:12:00,58.3,32.2,29.97,ESE,112,0.9,1.3,37,0.00,,---,0.00,VWS V14.00,2013-06-04 08:12:00,
2013-06-04 04:17:00,58.1,32.7,29.97,NNW,338,1.1,1.1,38,0.00,,---,0.00,VWS V14.00,2013-06-04 08:17:00,
2013-06-04 04:22:00,57.9,32.5,29.97,East,90,0.0,0.9,38,0.00,,---,0.00,VWS V14.00,2013-06-04 08:22:00,
2013-06-04 04:27:00,57.9,32.5,29.97,NW,315,1.3,1.3,38,0.00,,---,0.00,VWS V14.00,2013-06-04 08:27:00,
2013-06-04 04:32:00,57.7,32.3,29.97,North,0,1.1,1.3,38,0.00,,---,0.00,VWS V14.00,2013-06-04 08:32:00,
2013-06-04 04:37:00,57.6,32.2,29.97,WNW,292,1.3,1.3,38,0.00,,---,0.00,VWS V14.00,2013-06-04 08:37:00,
2013-06-04 04:42:00,57.4,32.0,29.94,WNW,292,2.9,2.9,38,0.00,,---,0.00,VWS V14.00,2013-06-04 08:42:00,
2013-06-04 04:47:00,57.4,32.0,29.94,NNW,338,0.9,0.9,38,0.00,,---,0.00,VWS V14.00,2013-06-04 08:47:00,
2013-06-04 04:52:00,57.2,31.8,29.94,ESE,112,4.3,4.9,38,0.00,,---,0.00,VWS V14.00,2013-06-04 08:52:00,
2013-06-04 04:57:00,57.2,31.8,29.97,NNW,338,2.7,2.7,38,0.00,,---,0.00,VWS V14.00,2013-06-04 08:57:00,
2013-06-04 05:02:00,57.2,31.8,29.97,North,0,1.1,1.1,38,0.00,,---,0.00,VWS V14.00,2013-06-04 09:02:00,
2013-06-04 05:07:00,57.0,32.3,29.97,NNE,22,3.4,3.4,39,0.00,,---,0.00,VWS V14.00,2013-06-04 09:07:00,
2013-06-04 05:12:00,57.0,32.3,29.97,North,0,1.3,1.3,39,0.00,,---,0.00,VWS V14.00,2013-06-04 09:12:00,
2013-06-04 05:17:00,57.0,32.3,29.97,NNW,338,1.6,1.6,39,0.00,,---,0.00,VWS V14.00,2013-06-04 09:17:00,
2013-06-04 05:22:00,56.8,32.2,29.97,North,0,5.6,5.6,39,0.00,,---,0.00,VWS V14.00,2013-06-04 09:22:00,
2013-06-04 05:27:00,56.8,32.2,29.97,WNW,292,1.1,1.1,39,0.00,,---,0.00,VWS V14.00,2013-06-04 09:27:00,
2013-06-04 05:32:00,56.7,32.0,29.97,NW,315,0.9,0.9,39,0.00,,---,0.00,VWS V14.00,2013-06-04 09:32:00,
2013-06-04 05:37:00,56.7,32.0,29.97,ENE,68,0.0,1.6,39,0.00,,---,0.00,VWS V14.00,2013-06-04 09:37:00,
2013-06-04 05:42:00,56.3,32.3,30.00,SE,135,2.2,2.2,40,0.00,,---,0.00,VWS V14.00,2013-06-04 09:42:00,
2013-06-04 05:47:00,56.3,32.3,30.00,East,90,1.6,458.3,40,0.00,,---,0.00,VWS V14.00,2013-06-04 09:47:00,
2013-06-04 05:52:00,55.9,32.0,30.00,North,0,0.0,0.0,40,0.00,,---,0.00,VWS V14.00,2013-06-04 09:52:00,
2013-06-04 05:57:00,55.9,32.0,30.00,ENE,68,2.5,3.4,40,0.00,,---,0.00,VWS V14.00,2013-06-04 09:57:00,
2013-06-04 06:02:00,55.8,32.4,30.00,South,180,0.0,0.0,41,0.00,,---,0.00,VWS V14.00,2013-06-04 10:02:00,
2013-06-04 06:07:00,55.8,32.4,30.00,NE,45,2.9,2.9,41,0.00,,---,0.00,VWS V14.00,2013-06-04 10:07:00,
2013-06-04 06:12:00,55.8,32.4,30.00,South,180,4.0,4.0,41,0.00,,---,0.00,VWS V14.00,2013-06-04 10:12:00,
2013-06-04 06:17:00,55.6,32.3,30.00,SSE,158,0.9,0.9,41,0.00,,---,0.00,VWS V14.00,2013-06-04 10:17:00,
2013-06-04 06:22:00,55.6,32.3,30.00,South,180,3.8,3.8,41,0.00,,---,0.00,VWS V14.00,2013-06-04 10:22:00,
2013-06-04 06:27:00,55.6,32.9,30.00,ENE,68,0.9,2.5,42,0.00,,---,0.00,VWS V14.00,2013-06-04 10:27:00,
2013-06-04 06:32:00,55.8,33.0,30.00,East,90,1.6,3.4,42,0.00,,---,0.00,VWS V14.00,2013-06-04 10:32:00,
2013-06-04 06:37:00,55.8,33.0,30.00,NW,315,2.0,2.0,42,0.00,,---,0.00,VWS V14.00,2013-06-04 10:37:00,
2013-06-04 06:42:00,55.9,33.2,30.03,NE,45,0.0,0.0,42,0.00,,---,0.00,VWS V14.00,2013-06-04 10:42:00,
2013-06-04 06:47:00,56.3,33.5,30.03,East,90,0.0,1.3,42,0.00,,---,0.00,VWS V14.00,2013-06-04 10:47:00,
2013-06-04 06:52:00,56.5,33.7,30.03,SSE,158,1.3,1.3,42,0.00,,---,0.00,VWS V14.00,2013-06-04 10:52:00,
2013-06-04 06:57:00,56.7,34.4,30.03,NNE,22,0.9,1.3,43,0.00,,---,0.00,VWS V14.00,2013-06-04 10:57:00,
2013-06-04 07:02:00,57.0,34.8,30.03,NNE,22,2.5,5.8,43,0.00,,---,0.00,VWS V14.00,2013-06-04 11:02:00,
2013-06-04 07:07:00,57.2,34.3,30.03,NNW,338,1.6,2.7,42,0.00,,---,0.00,VWS V14.00,2013-06-04 11:07:00,
2013-06-04 07:11:00,57.6,34.7,30.00,ENE,68,4.0,4.0,42,0.00,,---,0.00,VWS V14.00,2013-06-04 11:11:00,
2013-06-04 07:17:00,57.7,34.8,30.00,East,90,2.7,2.7,42,0.00,,---,0.00,VWS V14.00,2013-06-04 11:17:00,
2013-06-04 07:22:00,58.3,35.3,30.00,ENE,68,1.6,2.5,42,0.00,,---,0.00,VWS V14.00,2013-06-04 11:22:00,
2013-06-04 07:27:00,58.6,35.0,30.03,North,0,2.0,2.0,41,0.00,,---,0.00,VWS V14.00,2013-06-04 11:27:00,
2013-06-04 07:32:00,59.2,35.5,30.03,NNW,338,1.6,2.2,41,0.00,,---,0.00,VWS V14.00,2013-06-04 11:32:00,
2013-06-04 07:37:00,59.4,35.1,30.03,West,270,4.0,4.0,40,0.00,,---,0.00,VWS V14.00,2013-06-04 11:37:00,
2013-06-04 07:42:00,59.7,35.4,30.00,WNW,292,4.3,4.3,40,0.00,,---,0.00,VWS V14.00,2013-06-04 11:42:00,
2013-06-04 07:47:00,59.9,34.9,30.00,NNW,338,1.1,8.5,39,0.00,,---,0.00,VWS V14.00,2013-06-04 11:47:00,
2013-06-04 07:52:00,60.4,36.0,30.00,SSE,158,2.5,2.5,40,0.00,,---,0.00,VWS V14.00,2013-06-04 11:52:00,
2013-06-04 07:57:00,60.8,35.7,30.03,NE,45,5.6,5.6,39,0.00,,---,0.00,VWS V14.00,2013-06-04 11:57:00,
2013-06-04 08:02:00,61.0,35.9,30.03,North,0,4.0,4.0,39,0.00,,---,0.00,VWS V14.00,2013-06-04 12:02:00,
2013-06-04 08:07:00,61.3,36.2,30.03,ESE,112,2.0,2.9,39,0.00,,---,0.00,VWS V14.00,2013-06-04 12:07:00,
2013-06-04 08:12:00,61.5,35.7,30.03,North,0,1.1,1.1,38,0.00,,---,0.00,VWS V14.00,2013-06-04 12:12:00,
2013-06-04 08:17:00,61.7,35.9,30.03,North,0,2.7,2.7,38,0.00,,---,0.00,VWS V14.00,2013-06-04 12:17:00,
2013-06-04 08:22:00,61.9,36.0,30.03,North,0,2.9,5.6,38,0.00,,---,0.00,VWS V14.00,2013-06-04 12:22:00,
2013-06-04 08:27:00,61.9,35.3,30.03,NNW,338,3.8,3.8,37,0.00,,---,0.00,VWS V14.00,2013-06-04 12:27:00,
2013-06-04 08:32:00,62.1,35.5,30.03,East,90,5.8,5.8,37,0.00,,---,0.00,VWS V14.00,2013-06-04 12:32:00,
2013-06-04 08:37:00,62.2,35.7,30.03,SE,135,2.7,2.7,37,0.00,,---,0.00,VWS V14.00,2013-06-04 12:37:00,
2013-06-04 08:42:00,62.2,35.7,30.03,WNW,292,3.8,5.6,37,0.00,,---,0.00,VWS V14.00,2013-06-04 12:42:00,
2013-06-04 08:47:00,62.6,36.0,30.03,NW,315,1.6,3.6,37,0.00,,---,0.00,VWS V14.00,2013-06-04 12:47:00,
2013-06-04 08:52:00,62.4,35.8,30.03,West,270,1.6,2.0,37,0.00,,---,0.00,VWS V14.00,2013-06-04 12:52:00,
2013-06-04 08:57:00,62.6,35.3,30.03,NNE,22,0.9,3.4,36,0.00,,---,0.00,VWS V14.00,2013-06-04 12:57:00,
2013-06-04 09:02:00,62.8,36.2,30.03,NE,45,4.7,4.7,37,0.00,,---,0.00,VWS V14.00,2013-06-04 13:02:00,
2013-06-04 09:07:00,63.0,36.3,30.03,ENE,68,3.8,3.8,37,0.00,,---,0.00,VWS V14.00,2013-06-04 13:07:00,
2013-06-04 09:12:00,63.1,36.5,30.06,NE,45,2.2,2.2,37,0.00,,---,0.00,VWS V14.00,2013-06-04 13:12:00,
2013-06-04 09:17:00,63.1,35.8,30.06,NNW,338,1.3,2.5,36,0.00,,---,0.00,VWS V14.00,2013-06-04 13:17:00,
2013-06-04 09:22:00,63.3,36.6,30.06,NNE,22,2.5,2.5,37,0.00,,---,0.00,VWS V14.00,2013-06-04 13:22:00,
2013-06-04 09:27:00,63.5,36.1,30.06,NNE,22,2.5,2.5,36,0.00,,---,0.00,VWS V14.00,2013-06-04 13:27:00,
2013-06-04 09:32:00,63.5,36.1,30.06,North,0,1.6,2.7,36,0.00,,---,0.00,VWS V14.00,2013-06-04 13:32:00,
2013-06-04 09:37:00,63.7,36.2,30.06,NNW,338,4.0,8.1,36,0.00,,---,0.00,VWS V14.00,2013-06-04 13:37:00,
2013-06-04 09:42:00,64.0,36.6,30.06,NE,45,2.5,2.5,36,0.00,,---,0.00,VWS V14.00,2013-06-04 13:42:00,
2013-06-04 09:47:00,64.2,36.7,30.06,NW,315,2.0,2.0,36,0.00,,---,0.00,VWS V14.00,2013-06-04 13:47:00,
2013-06-04 09:52:00,64.4,36.9,30.06,SE,135,5.4,5.4,36,0.00,,---,0.00,VWS V14.00,2013-06-04 13:52:00,
2013-06-04 09:57:00,64.4,36.9,30.06,South,180,3.8,3.8,36,0.00,,---,0.00,VWS V14.00,2013-06-04 13:57:00,
2013-06-04 10:02:00,64.4,36.9,30.06,North,0,1.6,1.6,36,0.00,,---,0.00,VWS V14.00,2013-06-04 14:02:00,
2013-06-04 10:07:00,64.6,37.0,30.06,NW,315,1.6,1.6,36,0.00,,---,0.00,VWS V14.00,2013-06-04 14:07:00,
2013-06-04 10:12:00,64.9,37.4,30.06,South,180,5.4,5.4,36,0.00,,---,0.00,VWS V14.00,2013-06-04 14:12:00,
2013-06-04 10:17:00,64.9,36.7,30.06,NW,315,2.2,2.2,35,0.00,,---,0.00,VWS V14.00,2013-06-04 14:17:00,
2013-06-04 10:22:00,65.1,37.5,30.06,NE,45,2.7,2.7,36,0.00,,---,0.00,VWS V14.00,2013-06-04 14:22:00,
2013-06-04 10:26:00,65.5,37.8,30.06,SSE,158,4.7,4.7,36,0.00,,---,0.00,VWS V14.00,2013-06-04 14:26:00,
2013-06-04 10:32:00,65.5,37.8,30.06,SSE,158,2.7,5.6,36,0.00,,---,0.00,VWS V14.00,2013-06-04 14:32:00,
2013-06-04 10:37:00,65.7,37.3,30.06,SSE,158,2.9,2.9,35,0.00,,---,0.00,VWS V14.00,2013-06-04 14:37:00,
2013-06-04 10:42:00,65.7,38.0,30.06,SSE,158,2.9,2.9,36,0.00,,---,0.00,VWS V14.00,2013-06-04 14:42:00,
2013-06-04 10:47:00,65.8,37.5,30.06,WSW,248,2.7,2.7,35,0.00,,---,0.00,VWS V14.00,2013-06-04 14:47:00,
2013-06-04 10:52:00,66.0,37.6,30.06,SSW,202,2.2,4.3,35,0.00,,---,0.00,VWS V14.00,2013-06-04 14:52:00,
2013-06-04 10:57:00,66.2,37.8,30.06,South,180,1.1,1.1,35,0.00,,---,0.00,VWS V14.00,2013-06-04 14:57:00,
2013-06-04 11:02:00,66.2,37.8,30.06,NNW,338,2.7,2.7,35,0.00,,---,0.00,VWS V14.00,2013-06-04 15:02:00,
2013-06-04 11:07:00,66.6,37.3,30.06,South,180,4.3,4.3,34,0.00,,---,0.00,VWS V14.00,2013-06-04 15:07:00,
2013-06-04 11:12:00,66.9,38.4,30.06,South,180,3.6,3.6,35,0.00,,---,0.00,VWS V14.00,2013-06-04 15:12:00,
2013-06-04 11:17:00,67.1,37.8,30.06,NNE,22,1.6,5.8,34,0.00,,---,0.00,VWS V14.00,2013-06-04 15:17:00,
2013-06-04 11:22:00,67.3,38.0,30.06,NE,45,3.1,3.4,34,0.00,,---,0.00,VWS V14.00,2013-06-04 15:22:00,
2013-06-04 11:27:00,67.3,38.0,30.03,SW,225,4.0,4.0,34,0.00,,---,0.00,VWS V14.00,2013-06-04 15:27:00,
2013-06-04 11:32:00,67.6,39.0,30.03,ENE,68,1.6,1.6,35,0.00,,---,0.00,VWS V14.00,2013-06-04 15:32:00,
2013-06-04 11:37:00,68.0,38.6,30.03,South,180,1.6,1.6,34,0.00,,---,0.00,VWS V14.00,2013-06-04 15:37:00,
2013-06-04 11:42:00,68.0,38.6,30.06,SSE,158,3.4,3.6,34,0.00,,---,0.00,VWS V14.00,2013-06-04 15:42:00,
2013-06-04 11:47:00,68.2,38.0,30.06,SSE,158,2.7,3.4,33,0.00,,---,0.00,VWS V14.00,2013-06-04 15:47:00,
2013-06-04 11:52:00,68.2,38.0,30.06,NW,315,3.6,4.0,33,0.00,,---,0.00,VWS V14.00,2013-06-04 15:52:00,
2013-06-04 11:57:00,68.5,38.3,30.06,SSE,158,1.3,1.6,33,0.00,,---,0.00,VWS V14.00,2013-06-04 15:57:00,
2013-06-04 12:02:00,68.5,38.3,30.06,NNE,22,2.5,4.9,33,0.00,,---,0.00,VWS V14.00,2013-06-04 16:02:00,
2013-06-04 12:07:00,68.7,38.5,30.06,NE,45,5.4,5.4,33,0.00,,---,0.00,VWS V14.00,2013-06-04 16:07:00,
2013-06-04 12:12:00,68.9,38.6,30.06,WNW,292,1.1,1.3,33,0.00,,---,0.00,VWS V14.00,2013-06-04 16:12:00,
2013-06-04 12:17:00,68.9,38.6,30.06,SSE,158,3.8,3.8,33,0.00,,---,0.00,VWS V14.00,2013-06-04 16:17:00,
2013-06-04 12:22:00,69.3,39.0,30.06,NNE,22,6.3,6.3,33,0.00,,---,0.00,VWS V14.00,2013-06-04 16:22:00,
2013-06-04 12:27:00,69.3,39.0,30.06,NW,315,2.5,3.4,33,0.00,,---,0.00,VWS V14.00,2013-06-04 16:27:00,
2013-06-04 12:32:00,69.3,39.0,30.06,NE,45,3.8,3.8,33,0.00,,---,0.00,VWS V14.00,2013-06-04 16:32:00,
2013-06-04 12:37:00,69.4,39.1,30.06,NNW,338,2.0,2.7,33,0.00,,---,0.00,VWS V14.00,2013-06-04 16:37:00,
2013-06-04 12:42:00,69.6,39.3,30.06,SSW,202,4.9,4.9,33,0.00,,---,0.00,VWS V14.00,2013-06-04 16:42:00,
2013-06-04 12:47:00,69.8,38.6,30.06,South,180,2.0,2.0,32,0.00,,---,0.00,VWS V14.00,2013-06-04 16:47:00,
2013-06-04 12:52:00,70.2,39.7,30.06,East,90,1.3,1.6,33,0.00,,---,0.00,VWS V14.00,2013-06-04 16:52:00,
2013-06-04 12:57:00,70.3,39.9,30.06,SE,135,7.4,7.4,33,0.00,,---,0.00,VWS V14.00,2013-06-04 16:57:00,
2013-06-04 13:02:00,70.2,39.0,30.06,South,180,4.9,4.9,32,0.00,,---,0.00,VWS V14.00,2013-06-04 17:02:00,
2013-06-04 13:07:00,70.3,39.1,30.06,SSW,202,5.4,6.9,32,0.00,,---,0.00,VWS V14.00,2013-06-04 17:07:00,
2013-06-04 13:12:00,70.3,39.1,30.06,SSW,202,3.8,3.8,32,0.00,,---,0.00,VWS V14.00,2013-06-04 17:12:00,
2013-06-04 13:17:00,70.5,39.3,30.06,SSE,158,2.5,2.5,32,0.00,,---,0.00,VWS V14.00,2013-06-04 17:17:00,
2013-06-04 13:22:00,70.3,39.1,30.06,WNW,292,3.1,4.3,32,0.00,,---,0.00,VWS V14.00,2013-06-04 17:22:00,
2013-06-04 13:27:00,70.2,39.0,30.03,SSW,202,3.6,4.9,32,0.00,,---,0.00,VWS V14.00,2013-06-04 17:27:00,
2013-06-04 13:32:00,70.5,39.3,30.03,WSW,248,1.1,1.1,32,0.00,,---,0.00,VWS V14.00,2013-06-04 17:32:00,
2013-06-04 13:37:00,70.5,39.3,30.03,South,180,1.3,2.7,32,0.00,,---,0.00,VWS V14.00,2013-06-04 17:37:00,
2013-06-04 13:42:00,70.5,39.3,30.03,SW,225,0.0,0.0,32,0.00,,---,0.00,VWS V14.00,2013-06-04 17:42:00,
2013-06-04 13:47:00,70.5,39.3,30.03,NNW,338,4.7,4.7,32,0.00,,---,0.00,VWS V14.00,2013-06-04 17:47:00,
2013-06-04 13:52:00,70.3,39.1,30.03,North,0,2.9,2.9,32,0.00,,---,0.00,VWS V14.00,2013-06-04 17:52:00,
2013-06-04 13:57:00,70.7,39.4,30.03,WNW,292,3.4,3.4,32,0.00,,---,0.00,VWS V14.00,2013-06-04 17:57:00,
2013-06-04 14:02:00,70.9,39.6,30.03,NNE,22,1.1,1.1,32,0.00,,---,0.00,VWS V14.00,2013-06-04 18:02:00,
2013-06-04 14:07:00,71.1,39.7,30.03,SSW,202,3.1,5.6,32,0.00,,---,0.00,VWS V14.00,2013-06-04 18:07:00,
2013-06-04 14:12:00,71.2,39.9,30.03,SE,135,1.6,4.3,32,0.00,,---,0.00,VWS V14.00,2013-06-04 18:12:00,
2013-06-04 14:17:00,71.1,39.7,30.03,North,0,1.6,4.0,32,0.00,,---,0.00,VWS V14.00,2013-06-04 18:17:00,
2013-06-04 14:22:00,71.2,39.9,30.03,SSE,158,2.5,2.5,32,0.00,,---,0.00,VWS V14.00,2013-06-04 18:22:00,
2013-06-04 14:27:00,71.2,39.1,30.03,WSW,248,2.0,2.0,31,0.00,,---,0.00,VWS V14.00,2013-06-04 18:27:00,
2013-06-04 14:32:00,71.4,39.2,30.03,SSW,202,4.9,5.8,31,0.00,,---,0.00,VWS V14.00,2013-06-04 18:32:00,
2013-06-04 14:37:00,71.4,38.4,30.03,SSE,158,3.8,3.8,30,0.00,,---,0.00,VWS V14.00,2013-06-04 18:37:00,
2013-06-04 14:42:00,71.2,38.2,30.00,ESE,112,1.3,1.3,30,0.00,,---,0.00,VWS V14.00,2013-06-04 18:42:00,
2013-06-04 14:47:00,71.4,37.5,30.00,NNW,338,2.0,5.4,29,0.00,,---,0.00,VWS V14.00,2013-06-04 18:47:00,
2013-06-04 14:52:00,71.8,38.7,30.00,SSE,158,7.8,7.8,30,0.00,,---,0.00,VWS V14.00,2013-06-04 18:52:00,
2013-06-04 14:57:00,72.0,38.0,30.00,NE,45,3.6,3.6,29,0.00,,---,0.00,VWS V14.00,2013-06-04 18:57:00,
2013-06-04 15:02:00,72.0,38.0,30.00,East,90,2.9,2.9,29,0.00,,---,0.00,VWS V14.00,2013-06-04 19:02:00,
2013-06-04 15:07:00,72.0,38.0,30.00,ENE,68,2.7,3.4,29,0.00,,---,0.00,VWS V14.00,2013-06-04 19:07:00,
2013-06-04 15:12:00,72.1,38.2,30.03,NW,315,7.6,7.6,29,0.00,,---,0.00,VWS V14.00,2013-06-04 19:12:00,
2013-06-04 15:17:00,72.3,38.3,30.03,ESE,112,0.0,3.1,29,0.00,,---,0.00,VWS V14.00,2013-06-04 19:17:00,
2013-06-04 15:22:00,72.3,37.4,30.03,NW,315,3.8,6.9,28,0.00,,---,0.00,VWS V14.00,2013-06-04 19:22:00,
2013-06-04 15:27:00,72.5,38.5,30.03,SSW,202,0.0,1.3,29,0.00,,---,0.00,VWS V14.00,2013-06-04 19:27:00,
2013-06-04 15:32:00,72.7,38.6,30.03,South,180,2.7,2.7,29,0.00,,---,0.00,VWS V14.00,2013-06-04 19:32:00,
2013-06-04 15:37:00,72.7,37.7,30.03,SSE,158,2.7,3.6,28,0.00,,---,0.00,VWS V14.00,2013-06-04 19:37:00,
2013-06-04 15:42:00,72.7,37.7,30.00,NNE,22,2.5,3.6,28,0.00,,---,0.00,VWS V14.00,2013-06-04 19:42:00,
2013-06-04 15:47:00,72.9,37.9,30.00,WSW,248,3.8,3.8,28,0.00,,---,0.00,VWS V14.00,2013-06-04 19:47:00,
2013-06-04 15:52:00,72.7,36.8,30.03,NNW,338,0.9,2.0,27,0.00,,---,0.00,VWS V14.00,2013-06-04 19:52:00,
2013-06-04 15:57:00,72.7,36.8,30.03,South,180,1.3,4.0,27,0.00,,---,0.00,VWS V14.00,2013-06-04 19:57:00,
2013-06-04 16:02:00,72.9,37.0,30.03,East,90,2.0,3.4,27,0.00,,---,0.00,VWS V14.00,2013-06-04 20:02:00,
2013-06-04 16:07:00,73.0,38.0,30.03,SSE,158,2.2,3.4,28,0.00,,---,0.00,VWS V14.00,2013-06-04 20:07:00,
2013-06-04 16:12:00,73.0,37.1,30.03,South,180,2.9,2.9,27,0.00,,---,0.00,VWS V14.00,2013-06-04 20:12:00,
2013-06-04 16:17:00,73.0,37.1,30.03,SSE,158,4.0,4.9,27,0.00,,---,0.00,VWS V14.00,2013-06-04 20:17:00,
2013-06-04 16:22:00,73.0,37.1,30.03,North,0,1.1,3.8,27,0.00,,---,0.00,VWS V14.00,2013-06-04 20:22:00,
2013-06-04 16:27:00,73.0,37.1,30.03,North,0,0.9,2.7,27,0.00,,---,0.00,VWS V14.00,2013-06-04 20:27:00,
2013-06-04 16:32:00,73.0,37.1,30.03,SSW,202,2.7,4.0,27,0.00,,---,0.00,VWS V14.00,2013-06-04 20:32:00,
2013-06-04 16:37:00,73.0,36.2,30.03,NNW,338,1.3,2.0,26,0.00,,---,0.00,VWS V14.00,2013-06-04 20:37:00,
2013-06-04 16:42:00,73.0,36.2,30.03,West,270,3.4,5.8,26,0.00,,---,0.00,VWS V14.00,2013-06-04 20:42:00,
2013-06-04 16:47:00,72.9,36.0,30.03,East,90,3.8,4.0,26,0.00,,---,0.00,VWS V14.00,2013-06-04 20:47:00,
2013-06-04 16:52:00,72.9,36.0,30.03,South,180,2.0,2.9,26,0.00,,---,0.00,VWS V14.00,2013-06-04 20:52:00,
2013-06-04 16:57:00,73.0,36.2,30.03,SW,225,2.7,3.6,26,0.00,,---,0.00,VWS V14.00,2013-06-04 20:57:00,
2013-06-04 17:02:00,73.0,36.2,30.03,South,180,3.4,7.6,26,0.00,,---,0.00,VWS V14.00,2013-06-04 21:02:00,
2013-06-04 17:07:00,73.0,36.2,30.03,NNW,338,2.9,4.3,26,0.00,,---,0.00,VWS V14.00,2013-06-04 21:07:00,
2013-06-04 17:12:00,73.0,36.2,30.03,South,180,2.7,3.1,26,0.00,,---,0.00,VWS V14.00,2013-06-04 21:12:00,
2013-06-04 17:17:00,73.0,36.2,30.03,NE,45,3.4,3.8,26,0.00,,---,0.00,VWS V14.00,2013-06-04 21:17:00,
2013-06-04 17:22:00,73.0,36.2,30.03,SSE,158,3.6,3.6,26,0.00,,---,0.00,VWS V14.00,2013-06-04 21:22:00,
2013-06-04 17:27:00,72.9,36.0,30.03,WNW,292,1.1,4.7,26,0.00,,---,0.00,VWS V14.00,2013-06-04 21:27:00,
2013-06-04 17:32:00,72.9,36.0,30.03,NW,315,3.1,5.6,26,0.00,,---,0.00,VWS V14.00,2013-06-04 21:32:00,
2013-06-04 17:37:00,72.9,36.0,30.03,WSW,248,3.8,4.0,26,0.00,,---,0.00,VWS V14.00,2013-06-04 21:37:00,
2013-06-04 17:42:00,72.9,36.0,30.03,SSE,158,3.4,4.3,26,0.00,,---,0.00,VWS V14.00,2013-06-04 21:42:00,
2013-06-04 17:47:00,72.7,35.8,30.03,East,90,2.5,4.9,26,0.00,,---,0.00,VWS V14.00,2013-06-04 21:47:00,
2013-06-04 17:52:00,72.7,35.8,30.03,SSE,158,3.1,3.6,26,0.00,,---,0.00,VWS V14.00,2013-06-04 21:52:00,
2013-06-04 17:57:00,72.5,34.7,30.03,SW,225,3.8,3.8,25,0.00,,---,0.00,VWS V14.00,2013-06-04 21:57:00,
2013-06-04 18:02:00,72.5,35.7,30.03,East,90,0.9,1.6,26,0.00,,---,0.00,VWS V14.00,2013-06-04 22:02:00,
2013-06-04 18:07:00,72.5,34.7,30.03,South,180,1.3,2.0,25,0.00,,---,0.00,VWS V14.00,2013-06-04 22:07:00,
2013-06-04 18:12:00,72.3,34.6,30.03,NNW,338,2.0,3.4,25,0.00,,---,0.00,VWS V14.00,2013-06-04 22:12:00,
2013-06-04 18:17:00,72.1,34.4,30.03,NNE,22,2.0,2.5,25,0.00,,---,0.00,VWS V14.00,2013-06-04 22:17:00,
2013-06-04 18:22:00,72.1,34.4,30.03,SSW,202,2.5,2.9,25,0.00,,---,0.00,VWS V14.00,2013-06-04 22:22:00,
2013-06-04 18:27:00,72.0,34.2,30.03,SE,135,2.0,2.2,25,0.00,,---,0.00,VWS V14.00,2013-06-04 22:27:00,
2013-06-04 18:32:00,72.0,34.2,30.03,NNW,338,1.6,2.2,25,0.00,,---,0.00,VWS V14.00,2013-06-04 22:32:00,
2013-06-04 18:37:00,71.8,34.1,30.03,West,270,1.1,2.0,25,0.00,,---,0.00,VWS V14.00,2013-06-04 22:37:00,
2013-06-04 18:42:00,71.6,34.0,30.03,SE,135,0.0,1.6,25,0.00,,---,0.00,VWS V14.00,2013-06-04 22:42:00,
2013-06-04 18:47:00,71.4,34.8,30.03,ENE,68,0.9,2.7,26,0.00,,---,0.00,VWS V14.00,2013-06-04 22:47:00,
2013-06-04 18:52:00,71.2,34.6,30.03,ENE,68,3.6,3.6,26,0.00,,---,0.00,VWS V14.00,2013-06-04 22:52:00,
2013-06-04 18:57:00,71.1,34.5,30.03,ESE,112,1.3,3.1,26,0.00,,---,0.00,VWS V14.00,2013-06-04 22:57:00,
2013-06-04 19:02:00,70.9,33.3,30.03,NNE,22,1.3,4.0,25,0.00,,---,0.00,VWS V14.00,2013-06-04 23:02:00,
2013-06-04 19:07:00,70.7,33.2,30.03,West,270,1.3,2.9,25,0.00,,---,0.00,VWS V14.00,2013-06-04 23:07:00,
2013-06-04 19:12:00,70.5,33.0,30.03,NW,315,0.0,1.1,25,0.00,,---,0.00,VWS V14.00,2013-06-04 23:12:00,
2013-06-04 19:17:00,70.5,34.0,30.03,SSW,202,2.9,2.9,26,0.00,,---,0.00,VWS V14.00,2013-06-04 23:17:00,
2013-06-04 19:22:00,70.3,33.9,30.03,NNW,338,0.9,4.3,26,0.00,,---,0.00,VWS V14.00,2013-06-04 23:22:00,
2013-06-04 19:27:00,70.2,33.7,30.03,ENE,68,1.6,2.5,26,0.00,,---,0.00,VWS V14.00,2013-06-04 23:27:00,
2013-06-04 19:32:00,70.0,32.6,30.03,SSE,158,3.6,3.6,25,0.00,,---,0.00,VWS V14.00,2013-06-04 23:32:00,
2013-06-04 19:37:00,69.8,32.4,30.03,SSE,158,1.6,2.7,25,0.00,,---,0.00,VWS V14.00,2013-06-04 23:37:00,
2013-06-04 19:42:00,69.6,33.2,30.06,SE,135,2.9,2.9,26,0.00,,---,0.00,VWS V14.00,2013-06-04 23:42:00,
2013-06-04 19:47:00,69.4,33.1,30.06,WNW,292,2.2,3.1,26,0.00,,---,0.00,VWS V14.00,2013-06-04 23:47:00,
2013-06-04 19:52:00,69.3,32.9,30.06,ESE,112,1.1,1.1,26,0.00,,---,0.00,VWS V14.00,2013-06-04 23:52:00,
2013-06-04 19:57:00,68.9,32.6,30.06,East,90,0.0,1.1,26,0.00,,---,0.00,VWS V14.00,2013-06-04 23:57:00,
2013-06-04 20:02:00,68.7,32.5,30.06,ESE,112,0.0,1.1,26,0.00,,---,0.00,VWS V14.00,2013-06-05 00:02:00,
2013-06-04 20:07:00,68.4,32.2,30.06,SSE,158,2.7,2.7,26,0.00,,---,0.00,VWS V14.00,2013-06-05 00:07:00,
2013-06-04 20:12:00,68.0,31.9,30.06,SW,225,0.9,2.2,26,0.00,,---,0.00,VWS V14.00,2013-06-05 00:12:00,
2013-06-04 20:17:00,67.8,32.7,30.06,West,270,0.9,0.9,27,0.00,,---,0.00,VWS V14.00,2013-06-05 00:17:00,
2013-06-04 20:22:00,67.5,32.3,30.06,WSW,248,0.9,0.9,27,0.00,,---,0.00,VWS V14.00,2013-06-05 00:22:00,
2013-06-04 20:27:00,67.3,32.2,30.06,WSW,248,0.0,0.0,27,0.00,,---,0.00,VWS V14.00,2013-06-05 00:27:00,
2013-06-04 20:32:00,67.1,32.0,30.06,WSW,248,0.0,0.9,27,0.00,,---,0.00,VWS V14.00,2013-06-05 00:32:00,
2013-06-04 20:37:00,66.7,31.7,30.06,SW,225,0.9,0.9,27,0.00,,---,0.00,VWS V14.00,2013-06-05 00:37:00,
2013-06-04 20:42:00,66.6,31.6,30.09,WSW,248,0.0,0.0,27,0.00,,---,0.00,VWS V14.00,2013-06-05 00:42:00,
2013-06-04 20:47:00,66.2,31.3,30.09,South,180,1.6,2.0,27,0.00,,---,0.00,VWS V14.00,2013-06-05 00:47:00,
2013-06-04 20:52:00,66.0,32.0,30.09,South,180,0.9,1.3,28,0.00,,---,0.00,VWS V14.00,2013-06-05 00:52:00,
2013-06-04 20:57:00,65.7,31.7,30.09,WSW,248,1.1,1.1,28,0.00,,---,0.00,VWS V14.00,2013-06-05 00:57:00,
2013-06-04 21:02:00,65.5,31.5,30.09,WSW,248,0.9,0.9,28,0.00,,---,0.00,VWS V14.00,2013-06-05 01:02:00,
2013-06-04 21:07:00,64.9,31.1,30.09,SSW,202,0.0,0.0,28,0.00,,---,0.00,VWS V14.00,2013-06-05 01:07:00,
2013-06-04 21:12:00,64.8,30.9,30.09,North,0,1.3,1.3,28,0.00,,---,0.00,VWS V14.00,2013-06-05 01:12:00,
2013-06-04 21:17:00,64.6,31.6,30.09,SW,225,0.0,0.0,29,0.00,,---,0.00,VWS V14.00,2013-06-05 01:17:00,
2013-06-04 21:22:00,64.2,31.3,30.09,West,270,0.0,0.0,29,0.00,,---,0.00,VWS V14.00,2013-06-05 01:22:00,
2013-06-04 21:27:00,64.0,32.0,30.09,WSW,248,1.1,1.1,30,0.00,,---,0.00,VWS V14.00,2013-06-05 01:27:00,
2013-06-04 21:32:00,63.9,31.9,30.09,South,180,0.0,1.1,30,0.00,,---,0.00,VWS V14.00,2013-06-05 01:32:00,
2013-06-04 21:37:00,63.7,32.5,30.09,SW,225,0.0,0.0,31,0.00,,---,0.00,VWS V14.00,2013-06-05 01:37:00,
2013-06-04 21:42:00,63.5,32.3,30.09,West,270,0.0,0.0,31,0.00,,---,0.00,VWS V14.00,2013-06-05 01:42:00,
2013-06-04 21:47:00,63.3,32.2,30.09,West,270,0.0,0.0,31,0.00,,---,0.00,VWS V14.00,2013-06-05 01:47:00,
2013-06-04 21:52:00,63.0,32.7,30.09,SW,225,1.3,1.3,32,0.00,,---,0.00,VWS V14.00,2013-06-05 01:52:00,
2013-06-04 21:57:00,62.8,32.5,30.12,SW,225,1.1,1.1,32,0.00,,---,0.00,VWS V14.00,2013-06-05 01:57:00,
2013-06-04 22:02:00,62.6,33.1,30.12,WNW,292,0.9,0.9,33,0.00,,---,0.00,VWS V14.00,2013-06-05 02:02:00,
2013-06-04 22:07:00,62.4,33.0,30.12,WNW,292,0.0,0.0,33,0.00,,---,0.00,VWS V14.00,2013-06-05 02:07:00,
2013-06-04 22:12:00,62.2,33.5,30.12,South,180,0.0,1.1,34,0.00,,---,0.00,VWS V14.00,2013-06-05 02:12:00,
2013-06-04 22:17:00,62.1,33.4,30.12,East,90,0.0,1.3,34,0.00,,---,0.00,VWS V14.00,2013-06-05 02:17:00,
2013-06-04 22:22:00,61.9,33.2,30.12,ENE,68,0.0,0.9,34,0.00,,---,0.00,VWS V14.00,2013-06-05 02:22:00,
2013-06-04 22:27:00,61.7,33.1,30.15,ENE,68,0.0,0.0,34,0.00,,---,0.00,VWS V14.00,2013-06-05 02:27:00,
2013-06-04 22:32:00,61.5,32.9,30.15,ENE,68,0.0,0.0,34,0.00,,---,0.00,VWS V14.00,2013-06-05 02:32:00,
2013-06-04 22:37:00,61.3,32.8,30.15,ENE,68,0.0,0.0,34,0.00,,---,0.00,VWS V14.00,2013-06-05 02:37:00,
2013-06-04 22:42:00,61.3,32.8,30.15,ENE,68,0.0,1.1,34,0.00,,---,0.00,VWS V14.00,2013-06-05 02:42:00,
2013-06-04 22:47:00,61.0,32.4,30.15,ENE,68,0.9,1.6,34,0.00,,---,0.00,VWS V14.00,2013-06-05 02:47:00,
2013-06-04 22:52:00,60.8,32.3,30.15,WNW,292,0.0,0.0,34,0.00,,---,0.00,VWS V14.00,2013-06-05 02:52:00,
2013-06-04 22:57:00,60.6,32.1,30.15,WNW,292,0.0,0.0,34,0.00,,---,0.00,VWS V14.00,2013-06-05 02:57:00,
2013-06-04 23:02:00,60.4,32.7,30.15,WNW,292,0.0,0.0,35,0.00,,---,0.00,VWS V14.00,2013-06-05 03:02:00,
2013-06-04 23:07:00,60.3,32.5,30.15,SSE,158,0.0,0.0,35,0.00,,---,0.00,VWS V14.00,2013-06-05 03:07:00,
2013-06-04 23:12:00,60.1,32.4,30.18,East,90,1.3,1.3,35,0.00,,---,0.00,VWS V14.00,2013-06-05 03:12:00,
2013-06-04 23:17:00,59.9,32.2,30.18,East,90,0.0,0.0,35,0.00,,---,0.00,VWS V14.00,2013-06-05 03:17:00,
2013-06-04 23:22:00,59.7,32.0,30.18,East,90,0.0,0.0,35,0.00,,---,0.00,VWS V14.00,2013-06-05 03:22:00,
2013-06-04 23:27:00,59.7,32.0,30.15,East,90,0.0,0.0,35,0.00,,---,0.00,VWS V14.00,2013-06-05 03:27:00,
2013-06-04 23:32:00,59.5,31.9,30.15,East,90,0.0,0.9,35,0.00,,---,0.00,VWS V14.00,2013-06-05 03:32:00,
2013-06-04 23:37:00,59.5,31.9,30.15,East,90,0.0,0.0,35,0.00,,---,0.00,VWS V14.00,2013-06-05 03:37:00,
2013-06-04 23:42:00,59.4,31.7,30.15,East,90,0.0,0.0,35,0.00,,---,0.00,VWS V14.00,2013-06-05 03:42:00,
2013-06-04 23:47:00,59.4,31.7,30.15,East,90,0.0,0.9,35,0.00,,---,0.00,VWS V14.00,2013-06-05 03:47:00,
2013-06-04 23:52:00,59.2,31.6,30.15,East,90,0.0,0.0,35,0.00,,---,0.00,VWS V14.00,2013-06-05 03:52:00,
2013-06-04 23:57:00,59.2,31.6,30.15,East,90,0.0,0.0,35,0.00,,---,0.00,VWS V14.00,2013-06-05 03:57:00,